sensor_id;sensor_type;location;lat;lon;timestamp;P1;durP1;ratioP1;P2;durP2;ratioP2
12459;SDS011;6295;49.452;8.466;2022-07-21T00:02:12;11.80;;;10.70;;
12459;SDS011;6295;49.452;8.466;2022-07-21T00:06:14;12.23;;;11.03;;
12459;SDS011;6295;49.452;8.466;2022-07-21T00:10:17;12.13;;;11.10;;
12459;SDS011;6295;49.452;8.466;2022-07-21T00:14:20;12.50;;;11.30;;
12459;SDS011;6295;49.452;8.466;2022-07-21T00:18:23;13.17;;;11.97;;
12459;SDS011;6295;49.452;8.466;2022-07-21T00:22:28;14.00;;;12.70;;
12459;SDS011;6295;49.452;8.466;2022-07-21T00:26:30;14.70;;;13.30;;
12459;SDS011;6295;49.452;8.466;2022-07-21T00:30:33;15.37;;;14.07;;
12459;SDS011;6295;49.452;8.466;2022-07-21T00:34:36;15.77;;;14.30;;
12459;SDS011;6295;49.452;8.466;2022-07-21T00:38:39;15.77;;;14.30;;
12459;SDS011;6295;49.452;8.466;2022-07-21T00:42:41;15.57;;;14.17;;
12459;SDS011;6295;49.452;8.466;2022-07-21T00:46:44;16.43;;;14.97;;
12459;SDS011;6295;49.452;8.466;2022-07-21T00:50:48;16.33;;;14.70;;
12459;SDS011;6295;49.452;8.466;2022-07-21T00:54:50;16.53;;;15.03;;
12459;SDS011;6295;49.452;8.466;2022-07-21T00:58:53;15.97;;;14.57;;
12459;SDS011;6295;49.452;8.466;2022-07-21T01:02:56;16.60;;;15.10;;
12459;SDS011;6295;49.452;8.466;2022-07-21T01:07:01;15.80;;;14.43;;
12459;SDS011;6295;49.452;8.466;2022-07-21T01:11:05;16.57;;;15.07;;
12459;SDS011;6295;49.452;8.466;2022-07-21T01:15:08;16.33;;;14.83;;
12459;SDS011;6295;49.452;8.466;2022-07-21T01:19:12;15.77;;;14.37;;
12459;SDS011;6295;49.452;8.466;2022-07-21T01:23:15;16.40;;;14.80;;
12459;SDS011;6295;49.452;8.466;2022-07-21T01:27:18;16.77;;;15.07;;
12459;SDS011;6295;49.452;8.466;2022-07-21T01:31:20;16.87;;;14.87;;
12459;SDS011;6295;49.452;8.466;2022-07-21T01:35:22;16.77;;;15.17;;
12459;SDS011;6295;49.452;8.466;2022-07-21T01:39:26;16.87;;;15.47;;
12459;SDS011;6295;49.452;8.466;2022-07-21T01:43:46;16.80;;;15.20;;
12459;SDS011;6295;49.452;8.466;2022-07-21T01:47:49;17.13;;;15.53;;
12459;SDS011;6295;49.452;8.466;2022-07-21T01:51:54;17.23;;;15.63;;
12459;SDS011;6295;49.452;8.466;2022-07-21T01:55:58;16.80;;;15.13;;
12459;SDS011;6295;49.452;8.466;2022-07-21T02:00:00;17.63;;;16.00;;
12459;SDS011;6295;49.452;8.466;2022-07-21T02:04:04;18.53;;;16.70;;
12459;SDS011;6295;49.452;8.466;2022-07-21T02:08:06;17.93;;;16.27;;
12459;SDS011;6295;49.452;8.466;2022-07-21T02:12:10;18.60;;;16.73;;
12459;SDS011;6295;49.452;8.466;2022-07-21T02:16:12;18.33;;;16.63;;
12459;SDS011;6295;49.452;8.466;2022-07-21T02:20:15;17.83;;;16.33;;
12459;SDS011;6295;49.452;8.466;2022-07-21T02:24:17;20.20;;;18.33;;
12459;SDS011;6295;49.452;8.466;2022-07-21T02:28:21;19.63;;;17.87;;
12459;SDS011;6295;49.452;8.466;2022-07-21T02:32:23;18.77;;;16.97;;
12459;SDS011;6295;49.452;8.466;2022-07-21T02:36:26;19.67;;;17.83;;
12459;SDS011;6295;49.452;8.466;2022-07-21T02:40:28;19.33;;;17.53;;
12459;SDS011;6295;49.452;8.466;2022-07-21T02:44:32;19.10;;;17.40;;
12459;SDS011;6295;49.452;8.466;2022-07-21T02:48:34;18.67;;;17.03;;
12459;SDS011;6295;49.452;8.466;2022-07-21T02:52:36;18.57;;;17.00;;
12459;SDS011;6295;49.452;8.466;2022-07-21T02:56:38;19.97;;;18.03;;
12459;SDS011;6295;49.452;8.466;2022-07-21T03:00:43;20.30;;;18.40;;
12459;SDS011;6295;49.452;8.466;2022-07-21T03:04:46;19.83;;;17.93;;
12459;SDS011;6295;49.452;8.466;2022-07-21T03:08:48;19.60;;;17.80;;
12459;SDS011;6295;49.452;8.466;2022-07-21T03:12:50;20.63;;;18.73;;
12459;SDS011;6295;49.452;8.466;2022-07-21T03:16:54;20.03;;;18.03;;
12459;SDS011;6295;49.452;8.466;2022-07-21T03:20:57;19.77;;;17.87;;
12459;SDS011;6295;49.452;8.466;2022-07-21T03:25:00;19.77;;;17.90;;
12459;SDS011;6295;49.452;8.466;2022-07-21T03:29:02;19.20;;;17.23;;
12459;SDS011;6295;49.452;8.466;2022-07-21T03:33:06;18.77;;;17.07;;
12459;SDS011;6295;49.452;8.466;2022-07-21T03:37:08;19.47;;;17.67;;
12459;SDS011;6295;49.452;8.466;2022-07-21T03:41:10;18.80;;;17.10;;
12459;SDS011;6295;49.452;8.466;2022-07-21T03:45:13;20.17;;;18.27;;
12459;SDS011;6295;49.452;8.466;2022-07-21T03:49:16;19.17;;;17.47;;
12459;SDS011;6295;49.452;8.466;2022-07-21T03:53:18;17.93;;;16.27;;
12459;SDS011;6295;49.452;8.466;2022-07-21T03:57:20;18.03;;;16.50;;
12459;SDS011;6295;49.452;8.466;2022-07-21T04:01:23;17.50;;;15.90;;
12459;SDS011;6295;49.452;8.466;2022-07-21T04:05:27;17.20;;;15.57;;
12459;SDS011;6295;49.452;8.466;2022-07-21T04:09:29;17.57;;;15.97;;
12459;SDS011;6295;49.452;8.466;2022-07-21T04:13:32;16.23;;;14.73;;
12459;SDS011;6295;49.452;8.466;2022-07-21T04:17:34;16.83;;;15.37;;
12459;SDS011;6295;49.452;8.466;2022-07-21T04:21:38;16.13;;;14.73;;
12459;SDS011;6295;49.452;8.466;2022-07-21T04:25:40;16.37;;;14.93;;
12459;SDS011;6295;49.452;8.466;2022-07-21T04:29:43;16.80;;;15.37;;
12459;SDS011;6295;49.452;8.466;2022-07-21T04:33:45;16.83;;;15.23;;
12459;SDS011;6295;49.452;8.466;2022-07-21T04:37:49;16.60;;;15.20;;
12459;SDS011;6295;49.452;8.466;2022-07-21T04:41:51;16.83;;;15.43;;
12459;SDS011;6295;49.452;8.466;2022-07-21T04:45:53;17.07;;;15.57;;
12459;SDS011;6295;49.452;8.466;2022-07-21T04:49:56;17.17;;;15.57;;
12459;SDS011;6295;49.452;8.466;2022-07-21T04:53:59;17.00;;;15.50;;
12459;SDS011;6295;49.452;8.466;2022-07-21T04:58:02;16.23;;;14.73;;
12459;SDS011;6295;49.452;8.466;2022-07-21T05:02:04;16.63;;;15.23;;
12459;SDS011;6295;49.452;8.466;2022-07-21T05:06:07;17.20;;;15.73;;
12459;SDS011;6295;49.452;8.466;2022-07-21T05:10:11;16.17;;;14.70;;
12459;SDS011;6295;49.452;8.466;2022-07-21T05:14:16;16.00;;;14.60;;
12459;SDS011;6295;49.452;8.466;2022-07-21T05:18:18;15.83;;;14.43;;
12459;SDS011;6295;49.452;8.466;2022-07-21T05:22:20;14.90;;;13.60;;
12459;SDS011;6295;49.452;8.466;2022-07-21T05:26:24;15.33;;;13.93;;
12459;SDS011;6295;49.452;8.466;2022-07-21T05:30:26;15.00;;;13.80;;
12459;SDS011;6295;49.452;8.466;2022-07-21T05:34:29;16.30;;;14.90;;
12459;SDS011;6295;49.452;8.466;2022-07-21T05:38:31;15.83;;;14.47;;
12459;SDS011;6295;49.452;8.466;2022-07-21T05:42:35;16.60;;;15.10;;
12459;SDS011;6295;49.452;8.466;2022-07-21T05:46:37;15.90;;;14.40;;
12459;SDS011;6295;49.452;8.466;2022-07-21T05:50:40;16.60;;;15.20;;
12459;SDS011;6295;49.452;8.466;2022-07-21T05:54:42;16.13;;;14.80;;
12459;SDS011;6295;49.452;8.466;2022-07-21T05:58:45;14.80;;;13.60;;
12459;SDS011;6295;49.452;8.466;2022-07-21T06:02:48;15.63;;;14.23;;
12459;SDS011;6295;49.452;8.466;2022-07-21T06:06:52;16.23;;;14.83;;
12459;SDS011;6295;49.452;8.466;2022-07-21T06:10:54;16.07;;;14.57;;
12459;SDS011;6295;49.452;8.466;2022-07-21T06:14:59;15.37;;;14.07;;
12459;SDS011;6295;49.452;8.466;2022-07-21T06:19:01;14.83;;;13.43;;
12459;SDS011;6295;49.452;8.466;2022-07-21T06:23:04;14.97;;;13.63;;
12459;SDS011;6295;49.452;8.466;2022-07-21T06:27:06;13.47;;;12.27;;
12459;SDS011;6295;49.452;8.466;2022-07-21T06:31:10;14.13;;;12.80;;
12459;SDS011;6295;49.452;8.466;2022-07-21T06:35:12;13.80;;;12.60;;
12459;SDS011;6295;49.452;8.466;2022-07-21T06:39:14;13.00;;;11.90;;
12459;SDS011;6295;49.452;8.466;2022-07-21T06:43:17;12.90;;;11.80;;
12459;SDS011;6295;49.452;8.466;2022-07-21T06:47:20;12.90;;;11.70;;
12459;SDS011;6295;49.452;8.466;2022-07-21T06:51:23;12.30;;;11.30;;
12459;SDS011;6295;49.452;8.466;2022-07-21T06:55:25;11.47;;;10.47;;
12459;SDS011;6295;49.452;8.466;2022-07-21T06:59:27;12.20;;;11.10;;
12459;SDS011;6295;49.452;8.466;2022-07-21T07:03:31;11.90;;;10.90;;
12459;SDS011;6295;49.452;8.466;2022-07-21T07:07:34;12.17;;;11.17;;
12459;SDS011;6295;49.452;8.466;2022-07-21T07:11:36;11.73;;;10.63;;
12459;SDS011;6295;49.452;8.466;2022-07-21T07:15:39;12.57;;;11.47;;
12459;SDS011;6295;49.452;8.466;2022-07-21T07:19:44;12.10;;;11.00;;
12459;SDS011;6295;49.452;8.466;2022-07-21T07:23:46;12.37;;;11.27;;
12459;SDS011;6295;49.452;8.466;2022-07-21T07:27:49;12.50;;;11.30;;
12459;SDS011;6295;49.452;8.466;2022-07-21T07:31:54;12.60;;;11.40;;
12459;SDS011;6295;49.452;8.466;2022-07-21T07:35:58;12.40;;;11.17;;
12459;SDS011;6295;49.452;8.466;2022-07-21T07:40:00;12.27;;;11.17;;
12459;SDS011;6295;49.452;8.466;2022-07-21T07:44:02;13.03;;;11.90;;
12459;SDS011;6295;49.452;8.466;2022-07-21T07:48:05;12.53;;;11.33;;
12459;SDS011;6295;49.452;8.466;2022-07-21T07:52:09;12.60;;;11.40;;
12459;SDS011;6295;49.452;8.466;2022-07-21T07:56:11;12.23;;;11.23;;
12459;SDS011;6295;49.452;8.466;2022-07-21T08:00:15;11.90;;;10.90;;
12459;SDS011;6295;49.452;8.466;2022-07-21T08:04:19;12.77;;;11.57;;
12459;SDS011;6295;49.452;8.466;2022-07-21T08:08:23;12.53;;;11.40;;
12459;SDS011;6295;49.452;8.466;2022-07-21T08:12:25;12.47;;;11.33;;
12459;SDS011;6295;49.452;8.466;2022-07-21T08:16:28;12.10;;;10.73;;
12459;SDS011;6295;49.452;8.466;2022-07-21T08:20:30;11.87;;;10.67;;
12459;SDS011;6295;49.452;8.466;2022-07-21T08:24:33;11.67;;;10.53;;
12459;SDS011;6295;49.452;8.466;2022-07-21T08:28:36;11.30;;;10.37;;
12459;SDS011;6295;49.452;8.466;2022-07-21T08:32:38;11.10;;;10.20;;
12459;SDS011;6295;49.452;8.466;2022-07-21T08:36:40;11.90;;;10.90;;
12459;SDS011;6295;49.452;8.466;2022-07-21T08:40:45;12.03;;;10.90;;
12459;SDS011;6295;49.452;8.466;2022-07-21T08:44:47;12.07;;;11.07;;
12459;SDS011;6295;49.452;8.466;2022-07-21T08:48:49;11.17;;;10.27;;
12459;SDS011;6295;49.452;8.466;2022-07-21T08:52:52;11.23;;;10.23;;
12459;SDS011;6295;49.452;8.466;2022-07-21T08:56:56;11.30;;;10.30;;
12459;SDS011;6295;49.452;8.466;2022-07-21T09:00:58;11.13;;;10.23;;
12459;SDS011;6295;49.452;8.466;2022-07-21T09:05:01;11.07;;;10.17;;
12459;SDS011;6295;49.452;8.466;2022-07-21T09:09:04;11.00;;;10.03;;
12459;SDS011;6295;49.452;8.466;2022-07-21T09:13:22;11.33;;;10.33;;
12459;SDS011;6295;49.452;8.466;2022-07-21T09:17:24;11.70;;;10.53;;
12459;SDS011;6295;49.452;8.466;2022-07-21T09:21:27;12.03;;;11.00;;
12459;SDS011;6295;49.452;8.466;2022-07-21T09:25:36;12.03;;;10.93;;
12459;SDS011;6295;49.452;8.466;2022-07-21T09:29:43;11.47;;;10.43;;
12459;SDS011;6295;49.452;8.466;2022-07-21T09:33:47;10.43;;;9.47;;
12459;SDS011;6295;49.452;8.466;2022-07-21T09:37:49;9.80;;;8.93;;
12459;SDS011;6295;49.452;8.466;2022-07-21T09:41:51;9.70;;;8.90;;
12459;SDS011;6295;49.452;8.466;2022-07-21T09:45:55;9.43;;;8.63;;
12459;SDS011;6295;49.452;8.466;2022-07-21T09:50:00;9.30;;;8.40;;
12459;SDS011;6295;49.452;8.466;2022-07-21T09:54:06;9.33;;;7.77;;
12459;SDS011;6295;49.452;8.466;2022-07-21T09:58:09;8.87;;;8.03;;
12459;SDS011;6295;49.452;8.466;2022-07-21T10:02:14;8.30;;;7.60;;
12459;SDS011;6295;49.452;8.466;2022-07-21T10:06:19;8.00;;;7.30;;
12459;SDS011;6295;49.452;8.466;2022-07-21T10:10:24;7.23;;;6.73;;
12459;SDS011;6295;49.452;8.466;2022-07-21T10:14:26;7.97;;;7.27;;
12459;SDS011;6295;49.452;8.466;2022-07-21T10:18:32;7.00;;;6.40;;
12459;SDS011;6295;49.452;8.466;2022-07-21T10:22:40;7.87;;;7.23;;
12459;SDS011;6295;49.452;8.466;2022-07-21T10:27:00;7.63;;;6.93;;
12459;SDS011;6295;49.452;8.466;2022-07-21T10:31:13;7.40;;;6.70;;
12459;SDS011;6295;49.452;8.466;2022-07-21T10:35:27;8.07;;;7.33;;
12459;SDS011;6295;49.452;8.466;2022-07-21T10:39:30;8.00;;;7.30;;
12459;SDS011;6295;49.452;8.466;2022-07-21T10:43:42;8.27;;;6.80;;
12459;SDS011;6295;49.452;8.466;2022-07-21T10:47:44;7.60;;;6.90;;
12459;SDS011;6295;49.452;8.466;2022-07-21T10:51:48;7.50;;;6.90;;
12459;SDS011;6295;49.452;8.466;2022-07-21T10:55:51;7.53;;;6.83;;
12459;SDS011;6295;49.452;8.466;2022-07-21T11:04:19;7.93;;;7.23;;
12459;SDS011;6295;49.452;8.466;2022-07-21T11:08:25;8.30;;;7.60;;
12459;SDS011;6295;49.452;8.466;2022-07-21T11:16:59;8.43;;;7.73;;
12459;SDS011;6295;49.452;8.466;2022-07-21T11:21:05;8.37;;;7.63;;
12459;SDS011;6295;49.452;8.466;2022-07-21T11:25:10;8.97;;;8.27;;
12459;SDS011;6295;49.452;8.466;2022-07-21T11:29:13;8.60;;;8.00;;
12459;SDS011;6295;49.452;8.466;2022-07-21T11:33:20;8.83;;;8.03;;
12459;SDS011;6295;49.452;8.466;2022-07-21T11:37:26;8.47;;;7.67;;
12459;SDS011;6295;49.452;8.466;2022-07-21T11:41:32;8.90;;;8.10;;
12459;SDS011;6295;49.452;8.466;2022-07-21T11:45:35;9.77;;;8.90;;
12459;SDS011;6295;49.452;8.466;2022-07-21T11:49:37;9.37;;;8.50;;
12459;SDS011;6295;49.452;8.466;2022-07-21T11:53:43;9.53;;;8.67;;
12459;SDS011;6295;49.452;8.466;2022-07-21T11:57:47;9.80;;;8.80;;
12459;SDS011;6295;49.452;8.466;2022-07-21T12:01:50;9.30;;;8.40;;
12459;SDS011;6295;49.452;8.466;2022-07-21T12:05:54;9.23;;;8.43;;
12459;SDS011;6295;49.452;8.466;2022-07-21T12:09:57;9.57;;;8.70;;
12459;SDS011;6295;49.452;8.466;2022-07-21T12:14:03;9.10;;;8.30;;
12459;SDS011;6295;49.452;8.466;2022-07-21T12:18:06;9.37;;;8.57;;
12459;SDS011;6295;49.452;8.466;2022-07-21T12:22:09;8.70;;;7.90;;
12459;SDS011;6295;49.452;8.466;2022-07-21T12:26:19;9.50;;;8.60;;
12459;SDS011;6295;49.452;8.466;2022-07-21T12:30:31;9.13;;;8.27;;
12459;SDS011;6295;49.452;8.466;2022-07-21T12:34:47;8.57;;;7.87;;
12459;SDS011;6295;49.452;8.466;2022-07-21T12:38:54;8.40;;;7.60;;
12459;SDS011;6295;49.452;8.466;2022-07-21T12:43:05;8.77;;;8.07;;
12459;SDS011;6295;49.452;8.466;2022-07-21T12:47:15;8.27;;;7.47;;
12459;SDS011;6295;49.452;8.466;2022-07-21T12:51:20;8.20;;;7.40;;
12459;SDS011;6295;49.452;8.466;2022-07-21T12:55:24;8.33;;;7.53;;
12459;SDS011;6295;49.452;8.466;2022-07-21T12:59:26;8.10;;;7.40;;
12459;SDS011;6295;49.452;8.466;2022-07-21T13:03:32;9.13;;;8.33;;
12459;SDS011;6295;49.452;8.466;2022-07-21T13:07:36;8.60;;;7.80;;
12459;SDS011;6295;49.452;8.466;2022-07-21T13:11:38;8.90;;;8.07;;
12459;SDS011;6295;49.452;8.466;2022-07-21T13:15:41;8.30;;;7.50;;
12459;SDS011;6295;49.452;8.466;2022-07-21T13:19:45;7.90;;;7.20;;
12459;SDS011;6295;49.452;8.466;2022-07-21T13:23:47;8.13;;;7.30;;
12459;SDS011;6295;49.452;8.466;2022-07-21T13:27:49;7.73;;;6.93;;
12459;SDS011;6295;49.452;8.466;2022-07-21T13:31:52;7.87;;;7.10;;
12459;SDS011;6295;49.452;8.466;2022-07-21T13:35:55;7.47;;;6.87;;
12459;SDS011;6295;49.452;8.466;2022-07-21T13:39:57;8.03;;;7.43;;
12459;SDS011;6295;49.452;8.466;2022-07-21T13:44:00;7.40;;;6.80;;
12459;SDS011;6295;49.452;8.466;2022-07-21T13:48:04;7.50;;;6.90;;
12459;SDS011;6295;49.452;8.466;2022-07-21T13:52:08;7.77;;;7.00;;
12459;SDS011;6295;49.452;8.466;2022-07-21T13:56:11;8.07;;;7.37;;
12459;SDS011;6295;49.452;8.466;2022-07-21T14:00:13;8.37;;;7.67;;
12459;SDS011;6295;49.452;8.466;2022-07-21T14:04:16;7.67;;;7.03;;
12459;SDS011;6295;49.452;8.466;2022-07-21T14:08:20;8.13;;;7.43;;
12459;SDS011;6295;49.452;8.466;2022-07-21T14:12:22;8.50;;;7.70;;
12459;SDS011;6295;49.452;8.466;2022-07-21T14:16:25;8.30;;;7.60;;
12459;SDS011;6295;49.452;8.466;2022-07-21T14:20:27;7.40;;;6.77;;
12459;SDS011;6295;49.452;8.466;2022-07-21T14:24:31;8.77;;;7.97;;
12459;SDS011;6295;49.452;8.466;2022-07-21T14:28:51;8.17;;;7.57;;
12459;SDS011;6295;49.452;8.466;2022-07-21T14:32:53;8.60;;;7.80;;
12459;SDS011;6295;49.452;8.466;2022-07-21T14:36:56;8.20;;;7.40;;
12459;SDS011;6295;49.452;8.466;2022-07-21T14:41:00;8.63;;;7.93;;
12459;SDS011;6295;49.452;8.466;2022-07-21T14:45:04;8.00;;;7.30;;
12459;SDS011;6295;49.452;8.466;2022-07-21T14:49:07;7.40;;;6.70;;
12459;SDS011;6295;49.452;8.466;2022-07-21T14:53:09;8.10;;;7.40;;
12459;SDS011;6295;49.452;8.466;2022-07-21T14:57:13;7.70;;;6.70;;
12459;SDS011;6295;49.452;8.466;2022-07-21T15:01:16;7.53;;;6.83;;
12459;SDS011;6295;49.452;8.466;2022-07-21T15:05:19;7.70;;;7.10;;
12459;SDS011;6295;49.452;8.466;2022-07-21T15:09:21;8.27;;;7.47;;
12459;SDS011;6295;49.452;8.466;2022-07-21T15:13:24;8.00;;;7.20;;
12459;SDS011;6295;49.452;8.466;2022-07-21T15:17:29;7.40;;;6.80;;
12459;SDS011;6295;49.452;8.466;2022-07-21T15:21:32;8.10;;;7.30;;
12459;SDS011;6295;49.452;8.466;2022-07-21T15:25:34;8.30;;;7.50;;
12459;SDS011;6295;49.452;8.466;2022-07-21T15:29:38;8.20;;;7.50;;
12459;SDS011;6295;49.452;8.466;2022-07-21T15:33:40;7.53;;;6.87;;
12459;SDS011;6295;49.452;8.466;2022-07-21T15:37:43;7.60;;;6.73;;
12459;SDS011;6295;49.452;8.466;2022-07-21T15:41:45;7.67;;;6.97;;
12459;SDS011;6295;49.452;8.466;2022-07-21T15:45:49;7.87;;;7.17;;
12459;SDS011;6295;49.452;8.466;2022-07-21T15:49:51;7.43;;;6.73;;
12459;SDS011;6295;49.452;8.466;2022-07-21T15:53:55;8.37;;;7.60;;
12459;SDS011;6295;49.452;8.466;2022-07-21T15:57:58;7.63;;;6.93;;
12459;SDS011;6295;49.452;8.466;2022-07-21T16:02:03;7.83;;;7.07;;
12459;SDS011;6295;49.452;8.466;2022-07-21T16:06:06;7.33;;;6.67;;
12459;SDS011;6295;49.452;8.466;2022-07-21T16:10:09;8.17;;;7.47;;
12459;SDS011;6295;49.452;8.466;2022-07-21T16:14:12;7.83;;;7.23;;
12459;SDS011;6295;49.452;8.466;2022-07-21T16:18:16;7.93;;;7.27;;
12459;SDS011;6295;49.452;8.466;2022-07-21T16:22:18;7.80;;;7.10;;
12459;SDS011;6295;49.452;8.466;2022-07-21T16:26:21;7.47;;;6.73;;
12459;SDS011;6295;49.452;8.466;2022-07-21T16:30:25;7.77;;;7.07;;
12459;SDS011;6295;49.452;8.466;2022-07-21T16:34:29;7.57;;;6.80;;
12459;SDS011;6295;49.452;8.466;2022-07-21T16:38:34;7.40;;;6.80;;
12459;SDS011;6295;49.452;8.466;2022-07-21T16:42:36;7.90;;;7.20;;
12459;SDS011;6295;49.452;8.466;2022-07-21T16:46:38;7.40;;;6.80;;
12459;SDS011;6295;49.452;8.466;2022-07-21T16:50:42;7.57;;;6.87;;
12459;SDS011;6295;49.452;8.466;2022-07-21T16:54:44;7.40;;;6.80;;
12459;SDS011;6295;49.452;8.466;2022-07-21T16:58:47;7.23;;;6.63;;
12459;SDS011;6295;49.452;8.466;2022-07-21T17:02:49;7.50;;;6.80;;
12459;SDS011;6295;49.452;8.466;2022-07-21T17:06:54;6.73;;;6.23;;
12459;SDS011;6295;49.452;8.466;2022-07-21T17:10:56;7.10;;;6.50;;
12459;SDS011;6295;49.452;8.466;2022-07-21T17:15:00;7.07;;;6.53;;
12459;SDS011;6295;49.452;8.466;2022-07-21T17:19:02;6.90;;;6.40;;
12459;SDS011;6295;49.452;8.466;2022-07-21T17:23:06;7.20;;;6.60;;
12459;SDS011;6295;49.452;8.466;2022-07-21T17:27:08;7.57;;;6.90;;
12459;SDS011;6295;49.452;8.466;2022-07-21T17:31:10;6.63;;;6.13;;
12459;SDS011;6295;49.452;8.466;2022-07-21T17:35:13;7.10;;;6.40;;
12459;SDS011;6295;49.452;8.466;2022-07-21T17:39:18;6.87;;;6.27;;
12459;SDS011;6295;49.452;8.466;2022-07-21T17:43:21;7.27;;;6.57;;
12459;SDS011;6295;49.452;8.466;2022-07-21T17:47:23;6.27;;;5.83;;
12459;SDS011;6295;49.452;8.466;2022-07-21T17:51:25;6.70;;;6.10;;
12459;SDS011;6295;49.452;8.466;2022-07-21T17:55:29;6.70;;;6.10;;
12459;SDS011;6295;49.452;8.466;2022-07-21T17:59:33;7.10;;;6.40;;
12459;SDS011;6295;49.452;8.466;2022-07-21T18:03:35;7.13;;;6.53;;
12459;SDS011;6295;49.452;8.466;2022-07-21T18:07:38;6.87;;;6.27;;
12459;SDS011;6295;49.452;8.466;2022-07-21T18:11:42;6.70;;;6.10;;
12459;SDS011;6295;49.452;8.466;2022-07-21T18:15:45;8.43;;;6.20;;
12459;SDS011;6295;49.452;8.466;2022-07-21T18:19:49;7.47;;;6.67;;
12459;SDS011;6295;49.452;8.466;2022-07-21T18:23:53;6.97;;;6.33;;
12459;SDS011;6295;49.452;8.466;2022-07-21T18:27:58;7.40;;;6.70;;
12459;SDS011;6295;49.452;8.466;2022-07-21T18:32:01;7.10;;;6.50;;
12459;SDS011;6295;49.452;8.466;2022-07-21T18:36:03;7.30;;;6.70;;
12459;SDS011;6295;49.452;8.466;2022-07-21T18:40:06;7.20;;;6.53;;
12459;SDS011;6295;49.452;8.466;2022-07-21T18:44:10;7.00;;;6.50;;
12459;SDS011;6295;49.452;8.466;2022-07-21T18:48:13;7.33;;;6.63;;
12459;SDS011;6295;49.452;8.466;2022-07-21T18:52:15;7.10;;;6.50;;
12459;SDS011;6295;49.452;8.466;2022-07-21T18:56:18;7.07;;;6.47;;
12459;SDS011;6295;49.452;8.466;2022-07-21T19:00:22;6.97;;;6.37;;
12459;SDS011;6295;49.452;8.466;2022-07-21T19:04:25;7.40;;;6.70;;
12459;SDS011;6295;49.452;8.466;2022-07-21T19:08:27;7.03;;;6.43;;
12459;SDS011;6295;49.452;8.466;2022-07-21T19:12:29;6.90;;;6.20;;
12459;SDS011;6295;49.452;8.466;2022-07-21T19:16:33;9.70;;;7.03;;
12459;SDS011;6295;49.452;8.466;2022-07-21T19:20:35;7.10;;;6.50;;
12459;SDS011;6295;49.452;8.466;2022-07-21T19:24:38;7.70;;;7.10;;
12459;SDS011;6295;49.452;8.466;2022-07-21T19:28:40;7.57;;;6.80;;
12459;SDS011;6295;49.452;8.466;2022-07-21T19:32:44;7.70;;;7.07;;
12459;SDS011;6295;49.452;8.466;2022-07-21T19:36:46;7.60;;;7.00;;
12459;SDS011;6295;49.452;8.466;2022-07-21T19:40:48;8.13;;;7.43;;
12459;SDS011;6295;49.452;8.466;2022-07-21T19:44:51;7.27;;;6.67;;
12459;SDS011;6295;49.452;8.466;2022-07-21T19:48:54;7.97;;;7.27;;
12459;SDS011;6295;49.452;8.466;2022-07-21T19:52:57;7.73;;;7.03;;
12459;SDS011;6295;49.452;8.466;2022-07-21T19:56:59;8.67;;;7.50;;
12459;SDS011;6295;49.452;8.466;2022-07-21T20:01:02;8.47;;;7.67;;
12459;SDS011;6295;49.452;8.466;2022-07-21T20:05:07;9.07;;;7.10;;
12459;SDS011;6295;49.452;8.466;2022-07-21T20:09:09;8.50;;;7.67;;
12459;SDS011;6295;49.452;8.466;2022-07-21T20:13:12;8.47;;;7.60;;
12459;SDS011;6295;49.452;8.466;2022-07-21T20:17:14;8.33;;;7.63;;
12459;SDS011;6295;49.452;8.466;2022-07-21T20:21:18;8.83;;;8.03;;
12459;SDS011;6295;49.452;8.466;2022-07-21T20:25:20;10.50;;;7.83;;
12459;SDS011;6295;49.452;8.466;2022-07-21T20:29:23;8.30;;;7.57;;
12459;SDS011;6295;49.452;8.466;2022-07-21T20:33:25;8.30;;;7.50;;
12459;SDS011;6295;49.452;8.466;2022-07-21T20:37:29;8.70;;;7.90;;
12459;SDS011;6295;49.452;8.466;2022-07-21T20:41:31;9.03;;;8.10;;
12459;SDS011;6295;49.452;8.466;2022-07-21T20:45:34;8.63;;;7.93;;
12459;SDS011;6295;49.452;8.466;2022-07-21T20:49:36;9.20;;;8.30;;
12459;SDS011;6295;49.452;8.466;2022-07-21T20:53:40;8.80;;;8.00;;
12459;SDS011;6295;49.452;8.466;2022-07-21T20:57:42;8.90;;;8.20;;
12459;SDS011;6295;49.452;8.466;2022-07-21T21:01:44;10.23;;;8.40;;
12459;SDS011;6295;49.452;8.466;2022-07-21T21:05:46;9.07;;;8.17;;
12459;SDS011;6295;49.452;8.466;2022-07-21T21:09:50;8.53;;;7.70;;
12459;SDS011;6295;49.452;8.466;2022-07-21T21:13:52;9.73;;;8.73;;
12459;SDS011;6295;49.452;8.466;2022-07-21T21:17:55;9.93;;;8.93;;
12459;SDS011;6295;49.452;8.466;2022-07-21T21:21:57;9.23;;;8.47;;
12459;SDS011;6295;49.452;8.466;2022-07-21T21:26:01;9.63;;;8.80;;
12459;SDS011;6295;49.452;8.466;2022-07-21T21:30:04;9.60;;;8.80;;
12459;SDS011;6295;49.452;8.466;2022-07-21T21:34:07;9.80;;;8.90;;
12459;SDS011;6295;49.452;8.466;2022-07-21T21:38:10;9.20;;;8.40;;
12459;SDS011;6295;49.452;8.466;2022-07-21T21:42:13;10.50;;;9.50;;
12459;SDS011;6295;49.452;8.466;2022-07-21T21:46:16;10.00;;;9.00;;
12459;SDS011;6295;49.452;8.466;2022-07-21T21:50:18;10.37;;;9.40;;
12459;SDS011;6295;49.452;8.466;2022-07-21T21:54:20;9.03;;;8.13;;
12459;SDS011;6295;49.452;8.466;2022-07-21T21:58:24;10.47;;;9.43;;
12459;SDS011;6295;49.452;8.466;2022-07-21T22:02:26;10.30;;;9.30;;
12459;SDS011;6295;49.452;8.466;2022-07-21T22:06:28;14.47;;;9.70;;
12459;SDS011;6295;49.452;8.466;2022-07-21T22:10:31;10.63;;;9.63;;
12459;SDS011;6295;49.452;8.466;2022-07-21T22:14:34;10.37;;;9.37;;
12459;SDS011;6295;49.452;8.466;2022-07-21T22:18:37;10.80;;;9.70;;
12459;SDS011;6295;49.452;8.466;2022-07-21T22:22:39;10.53;;;9.57;;
12459;SDS011;6295;49.452;8.466;2022-07-21T22:26:41;11.73;;;10.30;;
12459;SDS011;6295;49.452;8.466;2022-07-21T22:30:45;11.30;;;9.80;;
12459;SDS011;6295;49.452;8.466;2022-07-21T22:34:47;11.33;;;9.80;;
12459;SDS011;6295;49.452;8.466;2022-07-21T22:38:49;10.83;;;9.83;;
12459;SDS011;6295;49.452;8.466;2022-07-21T22:42:52;11.97;;;10.40;;
12459;SDS011;6295;49.452;8.466;2022-07-21T22:46:56;11.00;;;9.97;;
12459;SDS011;6295;49.452;8.466;2022-07-21T22:50:58;10.63;;;9.73;;
12459;SDS011;6295;49.452;8.466;2022-07-21T22:55:01;11.03;;;9.93;;
12459;SDS011;6295;49.452;8.466;2022-07-21T23:13:39;9.73;;;8.80;;
12459;SDS011;6295;49.452;8.466;2022-07-21T23:17:42;9.57;;;8.80;;
12459;SDS011;6295;49.452;8.466;2022-07-21T23:21:44;9.87;;;8.87;;
12459;SDS011;6295;49.452;8.466;2022-07-21T23:25:46;10.30;;;8.80;;
12459;SDS011;6295;49.452;8.466;2022-07-21T23:29:49;8.93;;;8.13;;
12459;SDS011;6295;49.452;8.466;2022-07-21T23:33:52;9.40;;;8.50;;
12459;SDS011;6295;49.452;8.466;2022-07-21T23:37:54;10.07;;;8.47;;
12459;SDS011;6295;49.452;8.466;2022-07-21T23:41:56;10.17;;;9.17;;
12459;SDS011;6295;49.452;8.466;2022-07-21T23:46:00;10.17;;;7.83;;
12459;SDS011;6295;49.452;8.466;2022-07-21T23:50:02;8.53;;;7.70;;
12459;SDS011;6295;49.452;8.466;2022-07-21T23:54:05;8.43;;;7.73;;
12459;SDS011;6295;49.452;8.466;2022-07-21T23:58:07;8.70;;;7.90;;
